• Join FlightAware (Why Join?)
  • Login
  • US Flag 
10:24AM EDT


 

Airport Tracker/Info


-or-


 

Live Flight TrackerFlight Track Log ✈ UAL582 ✈ 12-May-2013 ✈ KORD - KSNA

Flight Track Log - Related Links

Times and Time Zones

All times are in EDT time to prevent confusion due to time zone crossing. See the UAL582 flight status page for this flight to view local times or setup timezone preferences in your user account.

Time Position Orientation Groundspeed Altitude Reporting Facility
EDT Latitude Longitude Course Direction KTS MPH feet Rate Location/Type
09:24PM 42.0167 -87.9500 253° West 177 204 2,600  Level Chicago TRACON
09:25PM 42.0667 -88.0000 323° Northwest 238 274 4,700 2,820 Climbing Chicago TRACON
09:26PM 41.8629 -88.3678 242° Southwest  Level FlightAware Approximate
09:27PM 41.8244 -88.5239 254° West  Level FlightAware Approximate
09:27PM 42.0928 -88.1617 282° West 283 326 11,400  Level Chicago Center
09:28PM 41.7894 -88.6822 254° West  Level FlightAware Approximate
09:28PM 42.0361 -88.2636 233° Southwest 333 383 12,900  Level Chicago Center
09:29PM 41.7542 -88.8403 253° West  Level FlightAware Approximate
09:29PM 41.9700 -88.3844 234° Southwest 394 453 15,900  Level Chicago Center
09:30PM 41.8836 -88.5353 232° Southwest 424 488 19,200 2,160 Climbing Chicago Center
09:31PM 41.8228 -88.6689 239° Southwest 428 493 20,400 1,080 Climbing Chicago Center
09:32PM 41.7856 -88.8194 252° West 430 495 21,500 960 Climbing Chicago Center
09:33PM 41.7472 -88.9728 252° West 436 502 22,500 900 Climbing Chicago Center
09:34PM 41.7081 -89.1294 252° West 445 512 23,400 780 Climbing Chicago Center
09:35PM 41.6692 -89.2903 252° West 461 531 24,100 720 Climbing Chicago Center
09:36PM 41.6203 -89.4842 251° West 463 533 24,900 540 Climbing Chicago Center
09:37PM 41.5817 -89.6347 251° West 465 535 25,300 480 Climbing Chicago Center
09:38PM 41.5400 -89.8006 251° West 472 543 25,900 420 Climbing Chicago Center
09:39PM 41.4972 -89.9647 251° West 472 543 26,200 660 Climbing Chicago Center
09:40PM 41.4458 -90.1628 251° West 474 545 27,300 780 Climbing Chicago Center
09:41PM 41.4047 -90.3236 251° West 467 537 27,900 660 Climbing Chicago Center
09:42PM 41.3619 -90.4881 251° West 470 541 28,700 780 Climbing Chicago Center
09:43PM 41.3050 -90.6525 245° Southwest 505 581 29,600 780 Climbing Chicago Center
09:44PM 41.2264 -90.7992 235° Southwest 494 568 30,400 600 Climbing Chicago Center
09:45PM 41.1403 -90.9442 232° Southwest 499 574 30,900 480 Climbing Chicago Center
09:46PM 41.0528 -91.0911 232° Southwest 508 585 31,500 480 Climbing Chicago Center
09:47PM 40.9644 -91.2381 232° Southwest 512 589 32,000 660 Climbing Chicago Center
09:48PM 40.8608 -91.4114 232° Southwest 516 594 32,900 600 Climbing Chicago Center
09:49PM 40.7719 -91.5586 231° Southwest 517 595 33,300 420 Climbing Chicago Center
09:50PM 40.6822 -91.7072 232° Southwest 520 598 33,800 360 Climbing Chicago Center
09:51PM 40.6069 -91.8267 230° Southwest 525 604 34,000 60 Climbing Kansas City Center
09:52PM 40.4975 -92.0061 231° Southwest 528 608 34,000  Level Kansas City Center
09:53PM 40.4053 -92.1564 231° Southwest 529 609 34,000  Level Kansas City Center
09:54PM 40.3117 -92.3078 231° Southwest 533 613 34,000  Level Kansas City Center
09:55PM 40.2153 -92.4589 230° Southwest 532 612 34,000  Level Kansas City Center
09:56PM 40.1333 -92.6097 235° Southwest 530 610 34,000  Level Kansas City Center
09:57PM 40.0589 -92.7875 241° Southwest 522 601 34,000  Level Kansas City Center
09:59PM 39.9947 -92.9556 244° Southwest 519 597 34,000  Level Kansas City Center
10:00PM 39.9289 -93.1225 243° Southwest 520 598 34,000  Level Kansas City Center
10:01PM 39.8636 -93.2897 243° Southwest 521 600 34,000  Level Kansas City Center
10:02PM 39.7850 -93.4900 243° Southwest 521 600 34,000  Level Kansas City Center
10:03PM 39.7186 -93.6569 243° Southwest 522 601 34,000  Level Kansas City Center
10:04PM 39.6586 -93.8133 244° Southwest 517 595 34,000  Level Kansas City Center
10:05PM 39.5842 -93.9989 243° Southwest 518 596 34,000  Level Kansas City Center
10:06PM 39.5208 -94.1564 243° Southwest 514 592 34,000  Level Kansas City Center
10:07PM 39.4461 -94.3419 243° Southwest 518 596 34,000  Level Kansas City Center
10:08PM 39.3828 -94.4992 243° Southwest 516 594 34,000  Level Kansas City Center
10:09PM 39.3183 -94.6564 242° Southwest 515 593 34,000  Level Kansas City Center
10:10PM 39.2350 -94.8347 239° Southwest 516 594 34,000  Level Kansas City Center
10:11PM 39.1553 -94.9853 236° Southwest 521 600 34,000  Level Kansas City Center
10:12PM 39.0697 -95.1489 236° Southwest 522 601 34,000  Level Kansas City Center
10:13PM 38.9831 -95.3131 236° Southwest 523 602 34,000  Level Kansas City Center
10:14PM 38.9050 -95.4625 236° Southwest 522 601 34,000  Level Kansas City Center
10:15PM 38.8258 -95.6092 235° Southwest 522 601 34,000  Level Kansas City Center
10:16PM 38.7358 -95.7839 237° Southwest 525 604 34,000  Level Kansas City Center
10:17PM 38.6561 -95.9322 235° Southwest 528 608 34,000  Level Kansas City Center
10:18PM 38.5764 -96.0794 235° Southwest 525 604 34,000  Level Kansas City Center
10:19PM 38.4842 -96.2481 235° Southwest 521 600 34,000  Level Kansas City Center
10:20PM 38.4056 -96.3947 236° Southwest 522 601 34,000  Level Kansas City Center
10:21PM 38.3211 -96.5475 235° Southwest 529 609 34,000  Level Kansas City Center
10:22PM 38.2394 -96.6997 236° Southwest 523 602 34,000  Level Kansas City Center
10:23PM 38.1525 -96.8561 235° Southwest 526 605 34,000  Level Kansas City Center
10:24PM 38.0714 -97.0039 235° Southwest 524 603 34,000  Level Kansas City Center
10:25PM 37.9867 -97.1542 234° Southwest 523 602 34,000  Level Kansas City Center
10:26PM 37.9022 -97.3058 235° Southwest 524 603 34,000  Level Kansas City Center
10:27PM 37.8108 -97.4689 235° Southwest 522 601 34,000  Level Kansas City Center
10:28PM 37.7450 -97.6275 242° Southwest 513 590 34,000  Level Kansas City Center
10:29PM 37.7039 -97.7967 253° West 504 580 34,000  Level Kansas City Center
10:30PM 37.6719 -97.9658 257° West 499 574 34,000  Level Kansas City Center
10:31PM 37.6336 -98.1644 256° West 496 571 34,000  Level Kansas City Center
10:32PM 37.5992 -98.3342 256° West 497 572 34,000  Level Kansas City Center
10:33PM 37.5656 -98.5042 256° West 499 574 34,000  Level Kansas City Center
10:34PM 37.5319 -98.6733 256° West 498 573 34,000  Level Kansas City Center
10:35PM 37.4981 -98.8428 256° West 498 573 34,000  Level Kansas City Center
10:36PM 37.4644 -99.0117 256° West 498 573 34,000  Level Kansas City Center
10:37PM 37.4281 -99.1794 255° West 498 573 34,000  Level Kansas City Center
10:38PM 37.3911 -99.3494 255° West 502 578 34,000  Level Kansas City Center
10:39PM 37.3561 -99.5264 256° West 501 577 34,000  Level Kansas City Center
10:40PM 37.3167 -99.7156 255° West 500 575 34,000  Level Kansas City Center
10:41PM 37.2814 -99.8772 255° West 501 577 34,000  Level Kansas City Center
10:42PM 37.2481 -100.0378 255° West 498 573 34,000  Level Kansas City Center
10:43PM 37.2072 -100.2281 255° West 501 577 34,000  Level Kansas City Center
10:44PM 37.1722 -100.3903 255° West 502 578 34,000  Level Kansas City Center
10:45PM 37.1367 -100.5519 255° West 501 577 34,000  Level Kansas City Center
10:46PM 37.0944 -100.7419 254° West 503 579 34,000  Level Kansas City Center
10:47PM 37.0581 -100.9036 254° West 502 578 34,000  Level Kansas City Center
10:49PM 37.0319 -101.0675 259° West 502 578 34,000  Level Kansas City Center
10:50PM 37.0089 -101.2600 262° West 500 575 34,000  Level Kansas City Center
10:51PM 36.9869 -101.4236 261° West 499 574 34,000  Level Kansas City Center
10:52PM 36.9619 -101.6142 261° West 499 574 34,000  Level Albuquerque Center
10:53PM 36.9369 -101.8047 261° West 499 574 34,000  Level Albuquerque Center
10:54PM 36.9150 -101.9697 261° West 501 577 34,000  Level Albuquerque Center
10:55PM 36.8931 -102.1328 260° West 500 575 34,000  Level Albuquerque Center
10:56PM 36.8667 -102.3281 260° West 501 577 34,000  Level Albuquerque Center
10:57PM 36.8439 -102.4997 261° West 503 579 34,000  Level Albuquerque Center
10:58PM 36.8228 -102.6578 261° West 506 582 34,000  Level Albuquerque Center
10:59PM 36.7947 -102.8508 260° West 505 581 34,000  Level Albuquerque Center
11:00PM 36.7722 -103.0164 260° West 505 581 34,000  Level Albuquerque Center
11:01PM 36.7436 -103.2097 260° West 505 581 34,000  Level Albuquerque Center
11:02PM 36.7203 -103.3756 260° West 506 582 34,000  Level Albuquerque Center
11:03PM 36.6953 -103.5419 259° West 508 585 34,000  Level Albuquerque Center
11:04PM 36.6675 -103.7361 260° West 509 586 34,000  Level Albuquerque Center
11:05PM 36.6408 -103.9125 259° West 511 588 34,000  Level Albuquerque Center
11:06PM 36.6142 -104.0867 259° West 510 587 34,000  Level Albuquerque Center
11:07PM 36.5875 -104.2606 259° West 510 587 34,000  Level Albuquerque Center
11:08PM 36.5606 -104.4325 259° West 507 583 34,000  Level Albuquerque Center
11:09PM 36.5331 -104.6081 259° West 511 588 34,000  Level Albuquerque Center
11:10PM 36.5056 -104.7825 259° West 512 589 34,000  Level Albuquerque Center
11:11PM 36.4728 -104.9567 257° West 516 594 34,000  Level Albuquerque Center
11:12PM 36.4319 -105.1275 254° West 514 592 34,000  Level Albuquerque Center
11:13PM 36.3878 -105.3025 253° West 523 602 34,000  Level Albuquerque Center
11:14PM 36.3475 -105.4750 254° West 521 600 34,000  Level Albuquerque Center
11:15PM 36.3036 -105.6561 253° West 519 597 34,000  Level Albuquerque Center
11:16PM 36.2619 -105.8261 253° West 518 596 34,000  Level Albuquerque Center
11:17PM 36.2219 -105.9981 254° West 521 600 34,000  Level Albuquerque Center
11:18PM 36.1786 -106.1683 253° West 521 600 34,000  Level Albuquerque Center
11:19PM 36.1372 -106.3394 253° West 521 600 34,000  Level Albuquerque Center
11:20PM 36.0944 -106.5083 253° West 519 597 34,000  Level Albuquerque Center
11:21PM 36.0533 -106.6778 253° West 518 596 34,000  Level Albuquerque Center
11:22PM 36.0022 -106.8800 253° West 517 595 34,000  Level Albuquerque Center
11:23PM 35.9589 -107.0500 253° West 520 598 34,000  Level Albuquerque Center
11:24PM 35.9150 -107.2153 252° West 521 600 34,000  Level Albuquerque Center
11:25PM 35.8672 -107.4056 253° West 520 598 34,000  Level Albuquerque Center
11:26PM 35.8250 -107.5700 252° West 523 602 34,000  Level Albuquerque Center
11:27PM 35.7822 -107.7314 252° West 520 598 34,000  Level Albuquerque Center
11:28PM 35.7319 -107.9225 252° West 523 602 34,000  Level Albuquerque Center
11:29PM 35.6883 -108.0856 252° West 523 602 34,000  Level Albuquerque Center
11:30PM 35.6444 -108.2486 252° West 522 601 34,000  Level Albuquerque Center
11:31PM 35.5944 -108.4383 252° West 521 600 34,000  Level Albuquerque Center
11:33PM 35.5503 -108.6011 252° West 522 601 34,000  Level Albuquerque Center
11:34PM 35.5061 -108.7650 252° West 523 602 34,000  Level Albuquerque Center
11:35PM 35.4600 -108.9581 254° West 524 603 34,000  Level Albuquerque Center
11:36PM 35.4278 -109.1236 257° West 519 597 34,000  Level Albuquerque Center
11:37PM 35.3889 -109.3161 256° West 519 597 34,000  Level Albuquerque Center
11:38PM 35.3561 -109.4811 256° West 518 596 34,000  Level Albuquerque Center
11:39PM 35.3200 -109.6442 255° West 516 594 34,000  Level Albuquerque Center
11:40PM 35.2814 -109.8392 256° West 523 602 34,000  Level Albuquerque Center
11:41PM 35.2483 -110.0047 256° West 525 604 34,000  Level Albuquerque Center
11:42PM 35.2125 -110.1694 255° West 525 604 34,000  Level Albuquerque Center
11:43PM 35.1725 -110.3606 256° West 520 598 34,000  Level Albuquerque Center
11:44PM 35.1353 -110.5244 255° West 524 603 34,000  Level Albuquerque Center
11:45PM 35.0933 -110.7167 255° West 523 602 34,000  Level Albuquerque Center
11:46PM 35.0592 -110.8797 256° West 521 600 34,000  Level Albuquerque Center
11:47PM 35.0300 -111.0489 258° West 518 596 34,000  Level Albuquerque Center
11:48PM 35.0025 -111.2286 259° West 534 615 34,000  Level Albuquerque Center
11:49PM 34.9722 -111.4000 258° West 525 604 34,000  Level Albuquerque Center
11:50PM 34.9425 -111.5714 258° West 522 601 34,000  Level Albuquerque Center
11:51PM 34.9097 -111.7489 257° West 520 598 34,000  Level Albuquerque Center
11:52PM 34.8786 -111.9211 258° West 521 600 34,000  Level Albuquerque Center
11:53PM 34.8469 -112.0933 257° West 522 601 34,000  Level Albuquerque Center
11:54PM 34.8153 -112.2653 257° West 523 602 34,000  Level Albuquerque Center
11:55PM 34.7839 -112.4372 258° West 522 601 34,000  Level Albuquerque Center
11:56PM 34.7458 -112.6422 257° West 519 597 34,000  Level Albuquerque Center
11:57PM 34.7133 -112.8128 257° West 518 596 34,000  Level Albuquerque Center
11:58PM 34.6803 -112.9836 257° West 518 596 34,000  Level Albuquerque Center
11:59PM 34.6486 -113.1531 257° West 518 596 34,000  Level Albuquerque Center
12:00AM 34.6150 -113.3231 257° West 518 596 34,000  Level Albuquerque Center
12:01AM 34.5817 -113.4911 256° West 514 592 34,000  Level Albuquerque Center
12:02AM 34.5447 -113.6781 257° West 513 590 34,000  Level Albuquerque Center
12:03AM 34.5117 -113.8453 257° West 511 588 34,000  Level Albuquerque Center
12:04AM 34.4775 -114.0119 256° West 510 587 34,000  Level Albuquerque Center
12:05AM 34.4425 -114.1786 256° West 510 587 34,000 -120 Level Albuquerque Center
12:05AM 34.4325 -114.2228 255° West 508 585 33,900  Descending Los Angeles Center
12:06AM 34.3914 -114.3875 253° West 512 589 34,000  Climbing Los Angeles Center
12:07AM 34.3506 -114.5528 253° West 514 592 34,000 -60 Level Los Angeles Center
12:09AM 34.3111 -114.7139 254° West 506 582 33,900  Descending Los Angeles Center
12:10AM 34.2614 -114.9103 253° West 509 586 34,000  Climbing Los Angeles Center
12:11AM 34.2200 -115.0733 253° West 510 587 34,000 -240 Level Los Angeles Center
12:12AM 34.1786 -115.2386 253° West 513 590 33,600 -720 Descending Los Angeles Center
12:13AM 34.1361 -115.4031 253° West 515 593 32,600 -960 Descending Los Angeles Center
12:14AM 34.0947 -115.5689 253° West 517 595 31,700 -960 Descending Los Angeles Center
12:15AM 34.0525 -115.7342 253° West 519 597 30,700 -1,200 Descending Los Angeles Center
12:16AM 34.0089 -115.9006 252° West 520 598 29,300 -1,860 Descending Los Angeles Center
12:17AM 33.9669 -116.0614 253° West 511 588 27,000 -2,460 Descending Los Angeles Center
12:18AM 33.9181 -116.2478 253° West 491 565 24,300 -2,700 Descending Los Angeles Center
12:19AM 33.8789 -116.3933 252° West 465 535 21,600 -2,760 Descending Los Angeles Center
12:20AM 33.8767 -116.5478 269° West 467 537 18,800 -2,640 Descending Los Angeles Center
12:21AM 33.8833 -116.7036 273° West 469 540 16,300 -2,400 Descending Los Angeles Center
12:22AM 33.8875 -116.8514 272° West 452 520 14,000 -1,680 Descending Los Angeles Center
12:23AM 33.8494 -116.9706 249° West 414 476 13,000 -1,140 Descending Los Angeles Center
12:24AM 33.8033 -117.1050 248° West 371 427 11,800 -1,560 Descending Los Angeles Center
12:25AM 33.7733 -117.2031 250° West 331 381 9,900 -1,620 Descending Los Angeles Center
12:26AM 33.7794 -117.3011 274° West 301 346 8,500 -960 Descending Los Angeles Center
12:27AM 33.7803 -117.3814 271° West 254 292 8,000 -300 Descending Los Angeles Center
12:28AM 33.7794 -117.4550 269° West 226 260 8,000 -360 Level Los Angeles Center
12:29AM 33.7803 -117.5292 271° West 223 257 7,300 -720 Descending Los Angeles Center
12:30AM 33.7853 -117.6008 275° West 218 251 6,600 -540 Descending Los Angeles Center
12:30AM 33.8000 -117.6500 290° West 215 247 6,500 -900 Descending Southern California TRACON
12:32AM 33.7833 -117.7167 253° West 184 212 5,200 -1,560 Descending Southern California TRACON
12:33AM 33.7833 -117.7667 270° West 172 198 3,300 -1,740 Descending Southern California TRACON
12:34AM 33.7667 -117.8167 248° West 175 201 1,800 -1,200 Descending Southern California TRACON
12:35AM 33.7333 -117.8333 203° Southwest 149 171 1,000 -780 Descending Southern California TRACON
12:36AM 33.6833 -117.8667 209° Southwest 144 166 300 -720 Descending Southern California TRACON
12:38AM 33.6757 -117.8682 132° Southeast  Level Estimated